sensor_id;sensor_type;location;lat;lon;timestamp;pressure;altitude;pressure_sealevel;temperature;humidity
65557;BME280;52200;53.490;14.376;2023-04-07T00:01:59;101978.78;;;-0.09;77.57
65557;BME280;52200;53.490;14.376;2023-04-07T00:04:25;101972.91;;;-0.11;77.04
65557;BME280;52200;53.490;14.376;2023-04-07T00:06:50;101969.94;;;-0.01;77.32
65557;BME280;52200;53.490;14.376;2023-04-07T00:09:16;101974.91;;;-0.02;77.76
65557;BME280;52200;53.490;14.376;2023-04-07T00:11:41;101975.97;;;0.05;77.52
65557;BME280;52200;53.490;14.376;2023-04-07T00:14:06;101969.53;;;-0.11;77.52
65557;BME280;52200;53.490;14.376;2023-04-07T00:16:32;101965.75;;;-0.02;78.08
65557;BME280;52200;53.490;14.376;2023-04-07T00:18:57;101967.69;;;0.06;78.05
65557;BME280;52200;53.490;14.376;2023-04-07T00:21:22;101969.22;;;0.02;77.73
65557;BME280;52200;53.490;14.376;2023-04-07T00:23:48;101966.59;;;-0.01;77.82
65557;BME280;52200;53.490;14.376;2023-04-07T00:26:13;101962.78;;;-0.14;77.75
65557;BME280;52200;53.490;14.376;2023-04-07T00:28:39;101968.41;;;-0.20;77.81
65557;BME280;52200;53.490;14.376;2023-04-07T00:31:04;101963.69;;;-0.12;78.31
65557;BME280;52200;53.490;14.376;2023-04-07T00:33:30;101963.69;;;-0.35;78.54
65557;BME280;52200;53.490;14.376;2023-04-07T00:35:55;101960.78;;;-0.23;79.35
65557;BME280;52200;53.490;14.376;2023-04-07T00:38:22;101962.13;;;-0.10;78.42
65557;BME280;52200;53.490;14.376;2023-04-07T00:40:48;101955.19;;;-0.17;78.39
65557;BME280;52200;53.490;14.376;2023-04-07T00:43:13;101953.81;;;-0.09;78.51
65557;BME280;52200;53.490;14.376;2023-04-07T00:45:38;101952.97;;;-0.09;78.61
65557;BME280;52200;53.490;14.376;2023-04-07T00:48:04;101953.25;;;-0.24;79.09
65557;BME280;52200;53.490;14.376;2023-04-07T00:50:29;101952.13;;;-0.10;78.71
65557;BME280;52200;53.490;14.376;2023-04-07T00:52:55;101952.38;;;-0.25;79.10
65557;BME280;52200;53.490;14.376;2023-04-07T00:55:21;101954.56;;;-0.11;78.65
65557;BME280;52200;53.490;14.376;2023-04-07T00:57:47;101951.16;;;-0.13;78.82
65557;BME280;52200;53.490;14.376;2023-04-07T01:00:12;101946.00;;;-0.41;79.55
65557;BME280;52200;53.490;14.376;2023-04-07T01:02:47;101941.69;;;-0.22;79.38
65557;BME280;52200;53.490;14.376;2023-04-07T01:05:22;101945.44;;;-0.11;79.21
65557;BME280;52200;53.490;14.376;2023-04-07T01:07:57;101948.72;;;-0.12;79.01
65557;BME280;52200;53.490;14.376;2023-04-07T01:15:38;101952.00;;;-0.13;78.94
65557;BME280;52200;53.490;14.376;2023-04-07T01:18:17;101950.81;;;-0.23;79.66
65557;BME280;52200;53.490;14.376;2023-04-07T01:20:49;101942.91;;;-0.34;80.28
65557;BME280;52200;53.490;14.376;2023-04-07T01:23:51;101941.78;;;-0.42;79.74
65557;BME280;52200;53.490;14.376;2023-04-07T01:26:27;101942.44;;;-0.46;80.21
65557;BME280;52200;53.490;14.376;2023-04-07T01:31:45;101940.50;;;-0.32;80.14
65557;BME280;52200;53.490;14.376;2023-04-07T01:34:13;101938.84;;;-0.31;80.26
65557;BME280;52200;53.490;14.376;2023-04-07T01:36:40;101938.31;;;-0.23;80.10
65557;BME280;52200;53.490;14.376;2023-04-07T01:39:06;101938.38;;;-0.21;80.23
65557;BME280;52200;53.490;14.376;2023-04-07T01:41:33;101937.53;;;-0.22;80.24
65557;BME280;52200;53.490;14.376;2023-04-07T01:44:00;101932.66;;;-0.62;81.64
65557;BME280;52200;53.490;14.376;2023-04-07T01:46:27;101941.31;;;-0.96;84.41
65557;BME280;52200;53.490;14.376;2023-04-07T01:48:54;101930.13;;;-0.85;85.27
65557;BME280;52200;53.490;14.376;2023-04-07T01:51:21;101929.56;;;-0.78;85.99
65557;BME280;52200;53.490;14.376;2023-04-07T01:53:48;101927.81;;;-0.37;84.23
65557;BME280;52200;53.490;14.376;2023-04-07T01:56:13;101935.44;;;-0.11;83.20
65557;BME280;52200;53.490;14.376;2023-04-07T01:58:39;101923.84;;;-0.09;82.54
65557;BME280;52200;53.490;14.376;2023-04-07T02:01:05;101924.19;;;0.01;81.97
65557;BME280;52200;53.490;14.376;2023-04-07T02:03:35;101930.44;;;-0.11;82.60
65557;BME280;52200;53.490;14.376;2023-04-07T02:06:06;101921.13;;;0.08;82.25
65557;BME280;52200;53.490;14.376;2023-04-07T02:08:35;101926.44;;;0.17;81.34
65557;BME280;52200;53.490;14.376;2023-04-07T02:11:01;101923.16;;;0.18;81.55
65557;BME280;52200;53.490;14.376;2023-04-07T02:13:28;101922.97;;;0.13;81.30
65557;BME280;52200;53.490;14.376;2023-04-07T02:15:55;101927.44;;;0.22;81.27
65557;BME280;52200;53.490;14.376;2023-04-07T02:18:22;101934.16;;;0.23;80.45
65557;BME280;52200;53.490;14.376;2023-04-07T02:20:52;101918.28;;;0.21;80.57
65557;BME280;52200;53.490;14.376;2023-04-07T02:23:18;101914.69;;;-0.10;80.99
65557;BME280;52200;53.490;14.376;2023-04-07T02:25:43;101913.53;;;-0.41;82.57
65557;BME280;52200;53.490;14.376;2023-04-07T02:28:08;101915.34;;;-0.14;81.83
65557;BME280;52200;53.490;14.376;2023-04-07T02:30:34;101912.56;;;-0.22;81.99
65557;BME280;52200;53.490;14.376;2023-04-07T02:33:00;101905.16;;;-0.19;81.96
65557;BME280;52200;53.490;14.376;2023-04-07T02:35:26;101912.72;;;0.06;81.05
65557;BME280;52200;53.490;14.376;2023-04-07T02:37:51;101909.66;;;0.13;80.57
65557;BME280;52200;53.490;14.376;2023-04-07T02:40:16;101911.44;;;0.17;80.77
65557;BME280;52200;53.490;14.376;2023-04-07T02:42:42;101911.53;;;0.19;80.25
65557;BME280;52200;53.490;14.376;2023-04-07T02:45:09;101910.91;;;0.02;80.52
65557;BME280;52200;53.490;14.376;2023-04-07T02:47:35;101914.72;;;0.16;80.16
65557;BME280;52200;53.490;14.376;2023-04-07T02:50:02;101919.50;;;0.10;80.44
65557;BME280;52200;53.490;14.376;2023-04-07T02:52:27;101918.75;;;-0.12;80.54
65557;BME280;52200;53.490;14.376;2023-04-07T02:54:53;101918.63;;;-0.15;81.25
65557;BME280;52200;53.490;14.376;2023-04-07T02:57:18;101917.78;;;-0.15;81.62
65557;BME280;52200;53.490;14.376;2023-04-07T02:59:44;101916.44;;;-0.07;81.55
65557;BME280;52200;53.490;14.376;2023-04-07T03:02:09;101918.41;;;0.02;81.14
65557;BME280;52200;53.490;14.376;2023-04-07T03:04:35;101916.75;;;0.02;81.22
65557;BME280;52200;53.490;14.376;2023-04-07T03:07:00;101915.34;;;-0.14;81.74
65557;BME280;52200;53.490;14.376;2023-04-07T03:09:26;101916.31;;;0.12;81.23
65557;BME280;52200;53.490;14.376;2023-04-07T03:11:51;101911.34;;;-0.09;81.54
65557;BME280;52200;53.490;14.376;2023-04-07T03:14:17;101906.09;;;-0.39;82.78
65557;BME280;52200;53.490;14.376;2023-04-07T03:16:42;101906.16;;;-0.38;83.38
65557;BME280;52200;53.490;14.376;2023-04-07T03:19:08;101902.63;;;-0.43;83.33
65557;BME280;52200;53.490;14.376;2023-04-07T03:21:36;101902.41;;;-0.04;82.55
65557;BME280;52200;53.490;14.376;2023-04-07T03:24:01;101902.53;;;0.01;81.80
65557;BME280;52200;53.490;14.376;2023-04-07T03:26:27;101906.44;;;-0.07;81.30
65557;BME280;52200;53.490;14.376;2023-04-07T03:28:52;101901.31;;;-0.10;81.86
65557;BME280;52200;53.490;14.376;2023-04-07T03:31:18;101893.72;;;-0.13;81.20
65557;BME280;52200;53.490;14.376;2023-04-07T03:33:43;101902.97;;;-0.11;80.85
65557;BME280;52200;53.490;14.376;2023-04-07T03:36:08;101898.72;;;-0.13;81.44
65557;BME280;52200;53.490;14.376;2023-04-07T03:38:34;101912.56;;;-0.22;81.29
65557;BME280;52200;53.490;14.376;2023-04-07T03:40:59;101906.50;;;-0.28;81.46
65557;BME280;52200;53.490;14.376;2023-04-07T03:43:27;101906.38;;;-0.31;81.33
65557;BME280;52200;53.490;14.376;2023-04-07T03:45:53;101907.13;;;-0.34;81.52
65557;BME280;52200;53.490;14.376;2023-04-07T03:48:18;101910.91;;;-0.44;81.07
65557;BME280;52200;53.490;14.376;2023-04-07T03:50:45;101903.47;;;-0.42;81.70
65557;BME280;52200;53.490;14.376;2023-04-07T03:53:10;101907.50;;;-0.46;81.64
65557;BME280;52200;53.490;14.376;2023-04-07T03:55:38;101905.09;;;-0.66;82.01
65557;BME280;52200;53.490;14.376;2023-04-07T03:58:04;101907.03;;;-0.58;82.55
65557;BME280;52200;53.490;14.376;2023-04-07T04:00:29;101901.22;;;-0.80;82.63
65557;BME280;52200;53.490;14.376;2023-04-07T04:02:57;101898.03;;;-0.97;83.32
65557;BME280;52200;53.490;14.376;2023-04-07T04:05:22;101897.53;;;-1.31;85.01
65557;BME280;52200;53.490;14.376;2023-04-07T04:07:47;101897.50;;;-1.52;86.99
65557;BME280;52200;53.490;14.376;2023-04-07T04:10:15;101898.22;;;-1.54;87.03
65557;BME280;52200;53.490;14.376;2023-04-07T04:12:40;101897.28;;;-1.76;88.83
65557;BME280;52200;53.490;14.376;2023-04-07T04:15:06;101904.78;;;-1.56;89.75
65557;BME280;52200;53.490;14.376;2023-04-07T04:17:32;101902.78;;;-1.24;88.88
65557;BME280;52200;53.490;14.376;2023-04-07T04:19:57;101904.19;;;-1.31;87.78
65557;BME280;52200;53.490;14.376;2023-04-07T04:22:22;101909.56;;;-1.20;87.85
65557;BME280;52200;53.490;14.376;2023-04-07T04:24:48;101911.78;;;-1.67;89.18
65557;BME280;52200;53.490;14.376;2023-04-07T04:27:13;101904.84;;;-1.74;90.52
65557;BME280;52200;53.490;14.376;2023-04-07T04:29:38;101909.91;;;-1.53;91.33
65557;BME280;52200;53.490;14.376;2023-04-07T04:32:04;101906.59;;;-1.52;91.54
65557;BME280;52200;53.490;14.376;2023-04-07T04:34:30;101909.38;;;-1.66;91.94
65557;BME280;52200;53.490;14.376;2023-04-07T04:36:55;101905.00;;;-1.31;92.31
65557;BME280;52200;53.490;14.376;2023-04-07T04:39:20;101910.72;;;-1.33;91.60
65557;BME280;52200;53.490;14.376;2023-04-07T04:41:46;101920.06;;;-1.08;91.00
65557;BME280;52200;53.490;14.376;2023-04-07T04:44:11;101904.22;;;-0.45;89.51
65557;BME280;52200;53.490;14.376;2023-04-07T04:46:36;101906.72;;;-0.66;89.43
65557;BME280;52200;53.490;14.376;2023-04-07T04:49:02;101906.41;;;-0.53;89.30
65557;BME280;52200;53.490;14.376;2023-04-07T04:51:27;101894.00;;;-0.51;89.01
65557;BME280;52200;53.490;14.376;2023-04-07T04:53:53;101901.69;;;-0.68;90.03
65557;BME280;52200;53.490;14.376;2023-04-07T04:56:18;101904.66;;;-0.33;89.25
65557;BME280;52200;53.490;14.376;2023-04-07T04:58:43;101901.59;;;-0.03;89.18
65557;BME280;52200;53.490;14.376;2023-04-07T05:01:12;101907.50;;;-0.01;89.12
65557;BME280;52200;53.490;14.376;2023-04-07T05:03:38;101907.22;;;-0.08;89.25
65557;BME280;52200;53.490;14.376;2023-04-07T05:06:03;101908.16;;;0.18;89.86
65557;BME280;52200;53.490;14.376;2023-04-07T05:08:29;101909.75;;;0.16;88.98
65557;BME280;52200;53.490;14.376;2023-04-07T05:10:54;101910.19;;;0.53;88.82
65557;BME280;52200;53.490;14.376;2023-04-07T05:13:20;101908.22;;;0.44;88.21
65557;BME280;52200;53.490;14.376;2023-04-07T05:15:45;101912.78;;;0.56;89.10
65557;BME280;52200;53.490;14.376;2023-04-07T05:18:11;101903.94;;;0.91;88.34
65557;BME280;52200;53.490;14.376;2023-04-07T05:20:36;101903.69;;;1.09;88.05
65557;BME280;52200;53.490;14.376;2023-04-07T05:23:02;101907.38;;;1.21;87.73
65557;BME280;52200;53.490;14.376;2023-04-07T05:25:27;101900.25;;;1.33;87.31
65557;BME280;52200;53.490;14.376;2023-04-07T05:27:52;101894.84;;;1.48;87.03
65557;BME280;52200;53.490;14.376;2023-04-07T05:30:18;101904.63;;;1.69;85.46
65557;BME280;52200;53.490;14.376;2023-04-07T05:32:43;101905.06;;;1.83;85.06
65557;BME280;52200;53.490;14.376;2023-04-07T05:35:09;101907.13;;;1.69;86.20
65557;BME280;52200;53.490;14.376;2023-04-07T05:37:34;101916.00;;;1.87;85.74
65557;BME280;52200;53.490;14.376;2023-04-07T05:40:00;101905.53;;;1.71;86.67
65557;BME280;52200;53.490;14.376;2023-04-07T05:42:25;101909.34;;;1.87;86.27
65557;BME280;52200;53.490;14.376;2023-04-07T05:44:50;101908.88;;;2.01;85.92
65557;BME280;52200;53.490;14.376;2023-04-07T05:47:16;101906.09;;;1.91;86.35
65557;BME280;52200;53.490;14.376;2023-04-07T05:49:41;101904.72;;;2.01;86.98
65557;BME280;52200;53.490;14.376;2023-04-07T05:52:13;101910.41;;;1.96;87.23
65557;BME280;52200;53.490;14.376;2023-04-07T05:54:39;101904.28;;;2.16;86.30
65557;BME280;52200;53.490;14.376;2023-04-07T05:57:05;101903.94;;;2.34;85.85
65557;BME280;52200;53.490;14.376;2023-04-07T05:59:32;101911.50;;;2.36;86.28
65557;BME280;52200;53.490;14.376;2023-04-07T06:01:57;101909.44;;;2.53;85.65
65557;BME280;52200;53.490;14.376;2023-04-07T06:04:22;101902.03;;;2.57;85.75
65557;BME280;52200;53.490;14.376;2023-04-07T06:06:48;101911.19;;;2.57;85.80
65557;BME280;52200;53.490;14.376;2023-04-07T06:09:13;101909.94;;;2.73;84.98
65557;BME280;52200;53.490;14.376;2023-04-07T06:11:38;101909.59;;;2.59;85.60
65557;BME280;52200;53.490;14.376;2023-04-07T06:14:04;101903.06;;;2.66;86.21
65557;BME280;52200;53.490;14.376;2023-04-07T06:16:29;101901.13;;;2.55;86.20
65557;BME280;52200;53.490;14.376;2023-04-07T06:18:54;101903.47;;;2.49;86.85
65557;BME280;52200;53.490;14.376;2023-04-07T06:21:20;101895.38;;;2.60;86.89
65557;BME280;52200;53.490;14.376;2023-04-07T06:23:45;101900.63;;;2.69;86.67
65557;BME280;52200;53.490;14.376;2023-04-07T06:26:11;101904.06;;;2.72;86.67
65557;BME280;52200;53.490;14.376;2023-04-07T06:28:37;101904.56;;;2.93;85.88
65557;BME280;52200;53.490;14.376;2023-04-07T06:31:02;101905.53;;;2.99;86.06
65557;BME280;52200;53.490;14.376;2023-04-07T06:33:28;101904.28;;;3.17;85.50
65557;BME280;52200;53.490;14.376;2023-04-07T06:35:53;101895.91;;;3.16;84.84
65557;BME280;52200;53.490;14.376;2023-04-07T06:38:18;101901.88;;;3.21;85.16
65557;BME280;52200;53.490;14.376;2023-04-07T06:40:44;101904.22;;;3.14;85.38
65557;BME280;52200;53.490;14.376;2023-04-07T06:43:09;101905.41;;;3.30;85.18
65557;BME280;52200;53.490;14.376;2023-04-07T06:45:34;101894.84;;;3.06;86.20
65557;BME280;52200;53.490;14.376;2023-04-07T06:48:00;101903.50;;;3.19;85.70
65557;BME280;52200;53.490;14.376;2023-04-07T06:50:25;101897.06;;;3.31;85.31
65557;BME280;52200;53.490;14.376;2023-04-07T06:52:51;101894.84;;;3.45;85.60
65557;BME280;52200;53.490;14.376;2023-04-07T06:55:16;101890.47;;;3.36;86.09
65557;BME280;52200;53.490;14.376;2023-04-07T06:57:42;101894.56;;;3.31;86.30
65557;BME280;52200;53.490;14.376;2023-04-07T07:00:07;101894.94;;;3.48;85.92
65557;BME280;52200;53.490;14.376;2023-04-07T07:02:33;101900.94;;;3.54;86.42
65557;BME280;52200;53.490;14.376;2023-04-07T07:04:59;101893.41;;;3.56;86.16
65557;BME280;52200;53.490;14.376;2023-04-07T07:07:24;101899.34;;;3.58;86.80
65557;BME280;52200;53.490;14.376;2023-04-07T07:09:50;101899.56;;;3.69;86.13
65557;BME280;52200;53.490;14.376;2023-04-07T07:12:16;101901.34;;;3.75;86.88
65557;BME280;52200;53.490;14.376;2023-04-07T07:14:42;101903.84;;;3.75;86.93
65557;BME280;52200;53.490;14.376;2023-04-07T07:17:08;101898.13;;;3.80;86.96
65557;BME280;52200;53.490;14.376;2023-04-07T07:19:33;101901.25;;;4.13;86.17
65557;BME280;52200;53.490;14.376;2023-04-07T07:21:59;101896.75;;;3.96;86.72
65557;BME280;52200;53.490;14.376;2023-04-07T07:24:25;101901.63;;;3.88;87.49
65557;BME280;52200;53.490;14.376;2023-04-07T07:26:50;101895.94;;;3.97;87.53
65557;BME280;52200;53.490;14.376;2023-04-07T07:29:15;101898.59;;;4.05;87.07
65557;BME280;52200;53.490;14.376;2023-04-07T07:31:41;101894.38;;;4.02;87.51
65557;BME280;52200;53.490;14.376;2023-04-07T07:34:07;101902.06;;;4.10;87.31
65557;BME280;52200;53.490;14.376;2023-04-07T07:36:32;101900.66;;;4.25;87.04
65557;BME280;52200;53.490;14.376;2023-04-07T07:38:57;101899.75;;;4.21;87.86
65557;BME280;52200;53.490;14.376;2023-04-07T07:41:23;101909.00;;;4.22;87.95
65557;BME280;52200;53.490;14.376;2023-04-07T07:43:48;101910.88;;;4.34;88.15
65557;BME280;52200;53.490;14.376;2023-04-07T07:46:13;101897.75;;;4.50;87.49
65557;BME280;52200;53.490;14.376;2023-04-07T07:48:38;101907.16;;;4.61;86.48
65557;BME280;52200;53.490;14.376;2023-04-07T07:51:04;101909.81;;;4.68;86.66
65557;BME280;52200;53.490;14.376;2023-04-07T07:53:30;101925.00;;;4.27;87.19
65557;BME280;52200;53.490;14.376;2023-04-07T07:55:55;101912.69;;;3.98;89.19
65557;BME280;52200;53.490;14.376;2023-04-07T07:58:21;101916.22;;;4.05;89.00
65557;BME280;52200;53.490;14.376;2023-04-07T08:00:46;101919.06;;;4.24;88.89
65557;BME280;52200;53.490;14.376;2023-04-07T08:03:11;101920.31;;;4.46;88.64
65557;BME280;52200;53.490;14.376;2023-04-07T08:05:37;101922.63;;;4.33;89.39
65557;BME280;52200;53.490;14.376;2023-04-07T08:08:02;101921.47;;;4.16;89.12
65557;BME280;52200;53.490;14.376;2023-04-07T08:10:27;101924.53;;;4.01;89.89
65557;BME280;52200;53.490;14.376;2023-04-07T08:12:53;101925.31;;;4.00;90.86
65557;BME280;52200;53.490;14.376;2023-04-07T08:15:18;101921.34;;;4.10;91.02
65557;BME280;52200;53.490;14.376;2023-04-07T08:17:44;101921.34;;;4.11;91.35
65557;BME280;52200;53.490;14.376;2023-04-07T08:20:09;101921.34;;;4.11;91.41
65557;BME280;52200;53.490;14.376;2023-04-07T08:22:36;101916.66;;;4.28;92.22
65557;BME280;52200;53.490;14.376;2023-04-07T08:25:01;101917.59;;;4.35;91.47
65557;BME280;52200;53.490;14.376;2023-04-07T08:27:27;101919.28;;;4.34;91.80
65557;BME280;52200;53.490;14.376;2023-04-07T08:30:00;101926.25;;;4.49;91.44
65557;BME280;52200;53.490;14.376;2023-04-07T08:32:43;101920.78;;;4.26;91.33
65557;BME280;52200;53.490;14.376;2023-04-07T08:35:09;101921.06;;;4.42;92.01
65557;BME280;52200;53.490;14.376;2023-04-07T08:37:36;101924.78;;;4.61;91.28
65557;BME280;52200;53.490;14.376;2023-04-07T08:40:02;101924.06;;;4.68;90.05
65557;BME280;52200;53.490;14.376;2023-04-07T08:42:29;101916.00;;;4.40;90.43
65557;BME280;52200;53.490;14.376;2023-04-07T08:44:57;101925.81;;;4.26;91.74
65557;BME280;52200;53.490;14.376;2023-04-07T08:47:24;101920.22;;;4.41;91.64
65557;BME280;52200;53.490;14.376;2023-04-07T08:49:53;101919.41;;;4.42;91.31
65557;BME280;52200;53.490;14.376;2023-04-07T08:52:32;101915.63;;;4.18;91.92
65557;BME280;52200;53.490;14.376;2023-04-07T08:54:58;101922.25;;;4.15;92.65
65557;BME280;52200;53.490;14.376;2023-04-07T08:57:29;101920.50;;;4.11;93.24
65557;BME280;52200;53.490;14.376;2023-04-07T08:59:58;101928.22;;;4.18;93.43
65557;BME280;52200;53.490;14.376;2023-04-07T09:02:28;101925.88;;;4.29;93.11
65557;BME280;52200;53.490;14.376;2023-04-07T09:04:55;101922.59;;;4.32;92.57
65557;BME280;52200;53.490;14.376;2023-04-07T09:07:21;101927.41;;;4.19;93.46
65557;BME280;52200;53.490;14.376;2023-04-07T09:09:46;101924.00;;;4.17;93.43
65557;BME280;52200;53.490;14.376;2023-04-07T09:12:12;101925.03;;;4.29;94.06
65557;BME280;52200;53.490;14.376;2023-04-07T09:14:37;101923.44;;;4.32;93.20
65557;BME280;52200;53.490;14.376;2023-04-07T09:17:03;101934.50;;;4.42;93.38
65557;BME280;52200;53.490;14.376;2023-04-07T09:19:29;101931.97;;;4.41;92.71
65557;BME280;52200;53.490;14.376;2023-04-07T09:21:55;101936.94;;;4.38;93.38
65557;BME280;52200;53.490;14.376;2023-04-07T09:24:25;101930.44;;;4.49;93.31
65557;BME280;52200;53.490;14.376;2023-04-07T09:27:10;101931.22;;;4.46;93.23
65557;BME280;52200;53.490;14.376;2023-04-07T09:29:36;101931.34;;;4.52;93.28
65557;BME280;52200;53.490;14.376;2023-04-07T09:32:02;101934.31;;;4.31;93.80
65557;BME280;52200;53.490;14.376;2023-04-07T09:34:36;101927.97;;;4.50;93.43
65557;BME280;52200;53.490;14.376;2023-04-07T09:37:04;101933.84;;;4.51;93.58
65557;BME280;52200;53.490;14.376;2023-04-07T09:39:30;101937.75;;;4.84;92.37
65557;BME280;52200;53.490;14.376;2023-04-07T09:41:56;101921.69;;;4.28;94.08
65557;BME280;52200;53.490;14.376;2023-04-07T09:44:22;101923.63;;;4.43;93.34
65557;BME280;52200;53.490;14.376;2023-04-07T09:46:55;101922.03;;;4.47;93.50
65557;BME280;52200;53.490;14.376;2023-04-07T09:49:22;101926.41;;;4.59;93.60
65557;BME280;52200;53.490;14.376;2023-04-07T09:51:58;101923.03;;;4.57;93.48
65557;BME280;52200;53.490;14.376;2023-04-07T09:54:39;101923.75;;;4.49;93.77
65557;BME280;52200;53.490;14.376;2023-04-07T09:57:07;101919.34;;;4.87;93.10
65557;BME280;52200;53.490;14.376;2023-04-07T09:59:34;101922.88;;;4.98;92.09
65557;BME280;52200;53.490;14.376;2023-04-07T10:02:00;101919.84;;;4.67;92.38
65557;BME280;52200;53.490;14.376;2023-04-07T10:04:26;101925.03;;;4.76;92.59
65557;BME280;52200;53.490;14.376;2023-04-07T10:06:54;101929.66;;;5.04;92.05
65557;BME280;52200;53.490;14.376;2023-04-07T10:09:22;101930.34;;;4.93;91.63
65557;BME280;52200;53.490;14.376;2023-04-07T10:11:49;101929.81;;;5.13;91.53
65557;BME280;52200;53.490;14.376;2023-04-07T10:14:15;101935.03;;;5.24;90.38
65557;BME280;52200;53.490;14.376;2023-04-07T10:16:42;101928.72;;;4.95;90.98
65557;BME280;52200;53.490;14.376;2023-04-07T10:19:08;101926.91;;;4.87;91.85
65557;BME280;52200;53.490;14.376;2023-04-07T10:21:37;101931.97;;;4.90;92.07
65557;BME280;52200;53.490;14.376;2023-04-07T10:26:47;101933.31;;;4.69;92.93
65557;BME280;52200;53.490;14.376;2023-04-07T10:29:16;101924.91;;;4.70;93.80
65557;BME280;52200;53.490;14.376;2023-04-07T10:31:44;101934.06;;;4.65;94.41
65557;BME280;52200;53.490;14.376;2023-04-07T10:34:10;101931.63;;;4.68;94.34
65557;BME280;52200;53.490;14.376;2023-04-07T10:37:10;101923.97;;;4.63;93.96
65557;BME280;52200;53.490;14.376;2023-04-07T10:39:37;101925.13;;;4.82;93.66
65557;BME280;52200;53.490;14.376;2023-04-07T10:42:03;101926.22;;;4.97;93.42
65557;BME280;52200;53.490;14.376;2023-04-07T10:47:04;101921.88;;;4.88;94.57
65557;BME280;52200;53.490;14.376;2023-04-07T10:49:34;101922.06;;;4.99;93.96
65557;BME280;52200;53.490;14.376;2023-04-07T10:54:38;101924.88;;;5.19;93.10
65557;BME280;52200;53.490;14.376;2023-04-07T10:57:11;101918.94;;;5.15;93.35
65557;BME280;52200;53.490;14.376;2023-04-07T10:59:41;101917.34;;;5.21;94.08
65557;BME280;52200;53.490;14.376;2023-04-07T11:04:52;101921.16;;;5.54;93.05
65557;BME280;52200;53.490;14.376;2023-04-07T11:07:17;101922.97;;;5.61;92.51
65557;BME280;52200;53.490;14.376;2023-04-07T11:09:44;101922.88;;;5.56;91.92
65557;BME280;52200;53.490;14.376;2023-04-07T11:12:21;101919.53;;;5.56;92.02
65557;BME280;52200;53.490;14.376;2023-04-07T11:14:47;101916.84;;;5.43;92.95
65557;BME280;52200;53.490;14.376;2023-04-07T11:17:16;101910.09;;;5.41;92.71
65557;BME280;52200;53.490;14.376;2023-04-07T11:19:53;101915.88;;;5.33;93.33
65557;BME280;52200;53.490;14.376;2023-04-07T11:22:19;101912.34;;;5.24;92.75
65557;BME280;52200;53.490;14.376;2023-04-07T11:24:45;101909.50;;;5.02;94.11
65557;BME280;52200;53.490;14.376;2023-04-07T11:27:15;101906.88;;;4.96;94.05
65557;BME280;52200;53.490;14.376;2023-04-07T11:29:41;101911.00;;;4.89;94.16
65557;BME280;52200;53.490;14.376;2023-04-07T11:32:07;101913.69;;;5.00;95.13
65557;BME280;52200;53.490;14.376;2023-04-07T11:34:36;101912.28;;;5.18;95.38
65557;BME280;52200;53.490;14.376;2023-04-07T11:37:37;101906.44;;;5.22;94.58
65557;BME280;52200;53.490;14.376;2023-04-07T11:40:02;101912.34;;;5.24;94.04
65557;BME280;52200;53.490;14.376;2023-04-07T11:42:37;101908.34;;;5.38;93.96
65557;BME280;52200;53.490;14.376;2023-04-07T11:45:05;101905.22;;;5.53;93.36
65557;BME280;52200;53.490;14.376;2023-04-07T11:47:34;101908.72;;;5.66;93.26
65557;BME280;52200;53.490;14.376;2023-04-07T11:50:00;101901.28;;;5.75;92.83
65557;BME280;52200;53.490;14.376;2023-04-07T11:52:25;101902.97;;;5.76;92.52
65557;BME280;52200;53.490;14.376;2023-04-07T11:54:51;101891.31;;;5.88;92.80
65557;BME280;52200;53.490;14.376;2023-04-07T11:57:27;101897.09;;;5.76;92.94
65557;BME280;52200;53.490;14.376;2023-04-07T12:00:06;101889.91;;;6.05;92.37
65557;BME280;52200;53.490;14.376;2023-04-07T12:02:33;101890.50;;;5.87;92.54
65557;BME280;52200;53.490;14.376;2023-04-07T12:04:59;101891.38;;;5.89;92.09
65557;BME280;52200;53.490;14.376;2023-04-07T12:07:24;101884.81;;;6.01;91.84
65557;BME280;52200;53.490;14.376;2023-04-07T12:09:51;101885.94;;;6.29;91.45
65557;BME280;52200;53.490;14.376;2023-04-07T12:12:25;101893.47;;;6.26;91.05
65557;BME280;52200;53.490;14.376;2023-04-07T12:14:51;101884.03;;;6.08;91.39
65557;BME280;52200;53.490;14.376;2023-04-07T12:17:24;101886.66;;;6.19;92.10
65557;BME280;52200;53.490;14.376;2023-04-07T12:19:51;101880.88;;;6.29;90.71
65557;BME280;52200;53.490;14.376;2023-04-07T12:22:16;101881.91;;;6.47;89.46
65557;BME280;52200;53.490;14.376;2023-04-07T12:24:42;101880.41;;;6.67;88.96
65557;BME280;52200;53.490;14.376;2023-04-07T12:27:07;101879.53;;;6.64;88.12
65557;BME280;52200;53.490;14.376;2023-04-07T12:29:34;101876.31;;;6.83;88.26
65557;BME280;52200;53.490;14.376;2023-04-07T12:32:02;101883.91;;;6.88;86.58
65557;BME280;52200;53.490;14.376;2023-04-07T12:34:27;101876.94;;;6.59;87.52
65557;BME280;52200;53.490;14.376;2023-04-07T12:36:53;101874.97;;;6.24;89.16
65557;BME280;52200;53.490;14.376;2023-04-07T12:39:18;101880.75;;;6.15;90.19
65557;BME280;52200;53.490;14.376;2023-04-07T12:41:44;101873.25;;;6.21;90.79
65557;BME280;52200;53.490;14.376;2023-04-07T12:44:17;101878.13;;;6.04;90.19
65557;BME280;52200;53.490;14.376;2023-04-07T12:46:42;101877.97;;;5.95;91.56
65557;BME280;52200;53.490;14.376;2023-04-07T12:49:08;101879.56;;;5.87;91.68
65557;BME280;52200;53.490;14.376;2023-04-07T12:51:33;101876.31;;;5.95;91.64
65557;BME280;52200;53.490;14.376;2023-04-07T12:53:59;101887.84;;;5.76;92.03
65557;BME280;52200;53.490;14.376;2023-04-07T12:56:28;101886.28;;;5.88;92.21
65557;BME280;52200;53.490;14.376;2023-04-07T12:58:53;101877.13;;;5.94;90.92
65557;BME280;52200;53.490;14.376;2023-04-07T13:01:19;101885.25;;;5.70;91.86
65557;BME280;52200;53.490;14.376;2023-04-07T13:03:45;101885.63;;;6.00;91.74
65557;BME280;52200;53.490;14.376;2023-04-07T13:06:10;101890.88;;;6.20;91.06